createdAt,value
2018-07-30T00:00:28.781Z,24.48
2018-07-30T00:01:28.787Z,24.50
2018-07-30T00:02:28.791Z,24.48
2018-07-30T00:03:28.796Z,24.36
2018-07-30T00:04:28.798Z,24.36
2018-07-30T00:05:28.889Z,24.32
2018-07-30T00:06:28.808Z,24.36
2018-07-30T00:07:28.812Z,24.32
2018-07-30T00:08:28.822Z,24.40
2018-07-30T00:09:28.820Z,24.26
2018-07-30T00:10:28.825Z,24.24
2018-07-30T00:11:28.829Z,24.23
2018-07-30T00:12:28.833Z,24.28
2018-07-30T00:13:28.839Z,24.24
2018-07-30T00:14:28.847Z,24.17
2018-07-30T00:15:28.847Z,24.26
2018-07-30T00:16:28.857Z,24.23
2018-07-30T00:17:28.856Z,24.26
2018-07-30T00:18:28.860Z,24.28
2018-07-30T00:19:28.865Z,24.23
2018-07-30T00:20:28.873Z,24.16
2018-07-30T00:21:28.931Z,24.17
2018-07-30T00:22:28.878Z,24.24
2018-07-30T00:23:28.883Z,24.16
2018-07-30T00:24:28.891Z,24.18
2018-07-30T00:25:28.891Z,24.13
2018-07-30T00:26:28.898Z,24.18
2018-07-30T00:27:28.909Z,24.13
2018-07-30T00:28:28.903Z,24.11
2018-07-30T00:29:28.907Z,24.14
2018-07-30T00:30:28.913Z,24.16
2018-07-30T00:31:28.955Z,24.16
2018-07-30T00:32:28.924Z,24.16
2018-07-30T00:33:28.925Z,24.17
2018-07-30T00:34:28.934Z,24.17
2018-07-30T00:35:28.935Z,24.13
2018-07-30T00:36:28.937Z,24.10
2018-07-30T00:37:28.945Z,24.05
2018-07-30T00:38:28.946Z,24.03
2018-07-30T00:39:28.953Z,24.08
2018-07-30T00:40:28.954Z,24.01
2018-07-30T00:41:28.958Z,24.03
2018-07-30T00:42:28.964Z,23.99
2018-07-30T00:43:28.969Z,24.03
2018-07-30T00:44:28.977Z,23.99
2018-07-30T00:45:28.981Z,23.98
2018-07-30T00:46:28.984Z,23.96
2018-07-30T00:47:28.994Z,23.91
2018-07-30T00:48:28.991Z,23.93
2018-07-30T00:49:28.993Z,23.92
2018-07-30T00:50:28.998Z,23.88
2018-07-30T00:51:29.000Z,23.87
2018-07-30T00:52:29.005Z,23.86
2018-07-30T00:53:29.009Z,23.83
2018-07-30T00:54:29.015Z,23.86
2018-07-30T00:55:29.020Z,23.88
2018-07-30T00:56:29.024Z,23.71
2018-07-30T00:57:29.027Z,23.78
2018-07-30T00:58:29.031Z,23.76
2018-07-30T00:59:29.036Z,23.74
2018-07-30T01:00:29.039Z,23.74
2018-07-30T01:01:29.044Z,23.74
2018-07-30T01:02:29.048Z,23.74
2018-07-30T01:03:29.050Z,23.68
2018-07-30T01:04:29.059Z,23.63
2018-07-30T01:05:29.060Z,23.65
2018-07-30T01:06:29.064Z,23.62
2018-07-30T01:07:29.067Z,23.58
2018-07-30T01:08:29.071Z,23.66
2018-07-30T01:09:29.079Z,23.68
2018-07-30T01:10:29.080Z,23.68
2018-07-30T01:11:29.084Z,23.62
2018-07-30T01:12:29.089Z,23.54
2018-07-30T01:13:29.094Z,23.65
2018-07-30T01:14:29.174Z,23.51
2018-07-30T01:15:29.100Z,23.56
2018-07-30T01:16:29.106Z,23.44
2018-07-30T01:17:29.112Z,23.48
2018-07-30T01:18:29.115Z,23.46
2018-07-30T01:19:29.116Z,23.34
2018-07-30T01:20:29.125Z,23.34
2018-07-30T01:21:29.129Z,23.32
2018-07-30T01:22:29.129Z,23.31
2018-07-30T01:23:29.142Z,23.37
2018-07-30T01:24:29.139Z,23.31
2018-07-30T01:25:29.142Z,23.31
2018-07-30T01:26:29.147Z,23.32
2018-07-30T01:27:29.149Z,23.31
2018-07-30T01:28:29.153Z,23.36
2018-07-30T01:29:29.158Z,23.27
2018-07-30T01:30:29.161Z,23.23
2018-07-30T01:31:29.165Z,23.27
2018-07-30T01:32:29.168Z,23.25
2018-07-30T01:33:29.176Z,23.24
2018-07-30T01:34:29.180Z,23.24
2018-07-30T01:35:29.180Z,23.13
2018-07-30T01:36:29.188Z,23.15
2018-07-30T01:37:29.195Z,23.25
2018-07-30T01:38:29.242Z,23.12
2018-07-30T01:39:29.200Z,23.28
2018-07-30T01:40:29.199Z,23.09
2018-07-30T01:41:29.205Z,23.12
2018-07-30T01:42:29.208Z,23.15
2018-07-30T01:43:29.213Z,23.13
2018-07-30T01:44:29.219Z,23.13
2018-07-30T01:45:29.220Z,23.12
2018-07-30T01:46:29.227Z,23.12
2018-07-30T01:47:29.232Z,23.18
2018-07-30T01:48:29.235Z,23.09
2018-07-30T01:49:29.236Z,23.08
2018-07-30T01:50:29.241Z,23.09
2018-07-30T01:51:29.259Z,22.98
2018-07-30T01:52:29.247Z,23.03
2018-07-30T01:53:29.251Z,23.06
2018-07-30T01:54:29.257Z,23.02
2018-07-30T01:55:29.262Z,22.99
2018-07-30T01:56:29.266Z,23.00
2018-07-30T01:57:29.269Z,23.02
2018-07-30T01:58:29.270Z,23.03
2018-07-30T01:59:29.273Z,23.03
2018-07-30T02:00:29.278Z,23.08
2018-07-30T02:01:29.282Z,22.99
2018-07-30T02:02:29.286Z,23.00
2018-07-30T02:03:29.294Z,23.00
2018-07-30T02:04:29.294Z,22.99
2018-07-30T02:05:29.297Z,22.91
2018-07-30T02:06:29.307Z,22.94
2018-07-30T02:07:29.305Z,22.94
2018-07-30T02:08:29.309Z,22.91
2018-07-30T02:09:29.315Z,23.00
2018-07-30T02:10:29.318Z,23.02
2018-07-30T02:11:29.321Z,22.85
2018-07-30T02:12:29.324Z,22.91
2018-07-30T02:13:29.327Z,22.93
2018-07-30T02:14:29.331Z,22.88
2018-07-30T02:15:29.334Z,22.88
2018-07-30T02:16:29.341Z,22.80
2018-07-30T02:17:29.342Z,22.85
2018-07-30T02:18:29.349Z,22.73
2018-07-30T02:19:29.353Z,22.81
2018-07-30T02:20:29.354Z,22.75
2018-07-30T02:21:29.414Z,22.76
2018-07-30T02:22:29.366Z,22.75
2018-07-30T02:23:29.371Z,22.73
2018-07-30T02:24:29.368Z,22.80
2018-07-30T02:25:29.373Z,22.75
2018-07-30T02:26:29.376Z,22.80
2018-07-30T02:27:29.380Z,22.65
2018-07-30T02:28:29.385Z,22.68
2018-07-30T02:29:29.387Z,22.63
2018-07-30T02:30:29.394Z,22.57
2018-07-30T02:31:29.401Z,22.68
2018-07-30T02:32:29.398Z,22.59
2018-07-30T02:33:29.404Z,22.60
2018-07-30T02:34:29.411Z,22.54
2018-07-30T02:35:29.411Z,22.62
2018-07-30T02:36:29.416Z,22.60
2018-07-30T02:37:29.417Z,22.57
2018-07-30T02:38:29.421Z,22.57
2018-07-30T02:39:29.427Z,22.50
2018-07-30T02:40:29.443Z,22.48
2018-07-30T02:41:29.434Z,22.48
2018-07-30T02:42:29.438Z,22.39
2018-07-30T02:43:29.440Z,22.43
2018-07-30T02:44:29.445Z,22.41
2018-07-30T02:45:29.446Z,22.39
2018-07-30T02:46:29.469Z,22.38
2018-07-30T02:47:29.458Z,22.33
2018-07-30T02:48:29.457Z,22.30
2018-07-30T02:49:29.461Z,22.28
2018-07-30T02:50:29.467Z,22.32
2018-07-30T02:51:29.467Z,22.32
2018-07-30T02:52:29.472Z,22.29
2018-07-30T02:53:29.475Z,22.28
2018-07-30T02:54:29.482Z,22.30
2018-07-30T02:55:29.484Z,22.36
2018-07-30T02:56:29.486Z,22.28
2018-07-30T02:57:29.502Z,22.32
2018-07-30T02:58:29.492Z,22.35
2018-07-30T02:59:29.497Z,22.26
2018-07-30T03:00:29.504Z,22.30
2018-07-30T03:01:29.504Z,22.32
2018-07-30T03:02:29.509Z,22.28
2018-07-30T03:03:29.510Z,22.28
2018-07-30T03:04:29.514Z,22.26
2018-07-30T03:05:29.518Z,22.28
2018-07-30T03:06:29.522Z,22.23
2018-07-30T03:07:29.524Z,22.22
2018-07-30T03:08:29.528Z,22.18
2018-07-30T03:09:29.595Z,22.07
2018-07-30T03:10:29.536Z,22.10
2018-07-30T03:11:29.538Z,22.14
2018-07-30T03:12:29.545Z,22.14
2018-07-30T03:13:29.548Z,22.14
2018-07-30T03:14:29.554Z,22.08
2018-07-30T03:15:29.552Z,22.02
2018-07-30T03:16:29.556Z,22.13
2018-07-30T03:17:29.560Z,22.06
2018-07-30T03:18:36.434Z,22.00
2018-07-30T03:19:29.568Z,22.08
2018-07-30T03:20:29.570Z,21.99
2018-07-30T03:21:29.573Z,22.00
2018-07-30T03:22:29.576Z,22.00
2018-07-30T03:23:29.599Z,21.96
2018-07-30T03:24:29.588Z,22.02
2018-07-30T03:25:29.589Z,21.98
2018-07-30T03:26:29.593Z,21.96
2018-07-30T03:27:29.593Z,21.95
2018-07-30T03:28:29.596Z,21.96
2018-07-30T03:29:29.601Z,21.91
2018-07-30T03:30:29.607Z,21.91
2018-07-30T03:31:29.610Z,21.92
2018-07-30T03:32:29.611Z,21.88
2018-07-30T03:33:29.616Z,21.89
2018-07-30T03:34:29.620Z,21.91
2018-07-30T03:35:29.620Z,21.85
2018-07-30T03:36:29.623Z,21.83
2018-07-30T03:37:29.628Z,21.77
2018-07-30T03:38:29.631Z,21.83
2018-07-30T03:39:29.634Z,21.72
2018-07-30T03:40:29.637Z,21.79
2018-07-30T03:41:29.640Z,21.75
2018-07-30T03:42:29.646Z,21.69
2018-07-30T03:43:29.664Z,21.66
2018-07-30T03:44:29.654Z,21.67
2018-07-30T03:45:29.653Z,21.66
2018-07-30T03:46:29.657Z,21.64
2018-07-30T03:47:29.664Z,21.67
2018-07-30T03:48:29.681Z,21.66
2018-07-30T03:49:29.669Z,21.67
2018-07-30T03:50:29.671Z,21.60
2018-07-30T03:51:29.679Z,21.58
2018-07-30T03:52:29.676Z,21.66
2018-07-30T03:53:29.680Z,21.60
2018-07-30T03:54:29.684Z,21.57
2018-07-30T03:55:29.687Z,21.61
2018-07-30T03:56:29.690Z,21.64
2018-07-30T03:57:29.693Z,21.64
2018-07-30T03:58:29.696Z,21.50
2018-07-30T03:59:29.708Z,21.51
2018-07-30T04:00:29.704Z,21.57
2018-07-30T04:01:29.706Z,21.52
2018-07-30T04:02:29.713Z,21.55
2018-07-30T04:03:29.713Z,21.46
2018-07-30T04:04:29.715Z,21.45
2018-07-30T04:05:29.718Z,21.43
2018-07-30T04:06:29.806Z,21.46
2018-07-30T04:07:29.727Z,21.50
2018-07-30T04:08:29.729Z,21.43
2018-07-30T04:09:29.731Z,21.42
2018-07-30T04:10:29.735Z,21.43
2018-07-30T04:11:29.737Z,21.43
2018-07-30T04:12:29.740Z,21.51
2018-07-30T04:13:29.753Z,21.54
2018-07-30T04:14:29.746Z,21.48
2018-07-30T04:15:29.752Z,21.42
2018-07-30T04:16:29.753Z,21.39
2018-07-30T04:17:29.756Z,21.50
2018-07-30T04:18:29.759Z,21.43
2018-07-30T04:19:29.762Z,21.36
2018-07-30T04:20:29.765Z,21.36
2018-07-30T04:21:29.769Z,21.35
2018-07-30T04:22:29.785Z,21.42
2018-07-30T04:23:29.774Z,21.40
2018-07-30T04:24:29.778Z,21.43
2018-07-30T04:25:29.781Z,21.33
2018-07-30T04:26:29.784Z,21.35
2018-07-30T04:27:29.786Z,21.45
2018-07-30T04:28:29.792Z,21.39
2018-07-30T04:29:29.792Z,21.45
2018-07-30T04:30:29.800Z,21.48
2018-07-30T04:31:29.856Z,21.52
2018-07-30T04:32:29.801Z,21.52
2018-07-30T04:33:29.806Z,21.54
2018-07-30T04:34:29.808Z,21.62
2018-07-30T04:35:29.810Z,21.57
2018-07-30T04:36:29.815Z,21.64
2018-07-30T04:37:29.818Z,21.58
2018-07-30T04:38:29.820Z,21.61
2018-07-30T04:39:29.824Z,21.66
2018-07-30T04:40:29.826Z,21.73
2018-07-30T04:41:29.832Z,21.79
2018-07-30T04:42:29.833Z,21.73
2018-07-30T04:43:29.836Z,21.73
2018-07-30T04:44:29.842Z,21.89
2018-07-30T04:45:29.842Z,21.83
2018-07-30T04:46:29.846Z,21.91
2018-07-30T04:47:29.851Z,21.98
2018-07-30T04:48:29.854Z,21.99
2018-07-30T04:49:29.856Z,22.00
2018-07-30T04:50:29.863Z,22.08
2018-07-30T04:51:29.862Z,22.13
2018-07-30T04:52:29.864Z,22.17
2018-07-30T04:53:29.870Z,22.17
2018-07-30T04:54:29.873Z,22.22
2018-07-30T04:55:29.878Z,22.25
2018-07-30T04:56:29.877Z,22.29
2018-07-30T04:57:29.883Z,22.28
2018-07-30T04:58:29.891Z,22.30
2018-07-30T04:59:29.887Z,22.30
2018-07-30T05:00:29.894Z,22.41
2018-07-30T05:01:29.896Z,22.39
2018-07-30T05:02:29.899Z,22.51
2018-07-30T05:03:29.901Z,22.59
2018-07-30T05:04:29.905Z,22.48
2018-07-30T05:05:29.908Z,22.72
2018-07-30T05:06:29.911Z,22.73
2018-07-30T05:07:29.914Z,22.88
2018-07-30T05:08:29.920Z,23.34
2018-07-30T05:09:29.921Z,23.74
2018-07-30T05:10:29.971Z,23.93
2018-07-30T05:11:29.935Z,23.93
2018-07-30T05:12:29.932Z,24.06
2018-07-30T05:13:29.937Z,24.38
2018-07-30T05:14:29.943Z,24.47
2018-07-30T05:15:29.947Z,24.36
2018-07-30T05:16:29.948Z,24.28
2018-07-30T05:17:29.950Z,24.18
2018-07-30T05:18:29.957Z,24.16
2018-07-30T05:19:30.079Z,24.20
2018-07-30T05:20:29.965Z,24.08
2018-07-30T05:21:29.965Z,24.03
2018-07-30T05:22:29.971Z,24.13
2018-07-30T05:23:29.988Z,24.13
2018-07-30T05:24:29.977Z,24.26
2018-07-30T05:25:30.041Z,24.57
2018-07-30T05:26:29.989Z,24.92
2018-07-30T05:27:29.987Z,25.31
2018-07-30T05:28:29.995Z,25.58
2018-07-30T05:29:29.997Z,25.68
2018-07-30T05:30:30.009Z,25.80
2018-07-30T05:31:30.055Z,25.69
2018-07-30T05:32:30.012Z,25.50
2018-07-30T05:33:30.016Z,25.43
2018-07-30T05:34:30.027Z,25.32
2018-07-30T05:35:30.024Z,25.21
2018-07-30T05:36:30.031Z,25.18
2018-07-30T05:37:30.033Z,25.18
2018-07-30T05:38:30.036Z,25.16
2018-07-30T05:39:30.041Z,25.18
2018-07-30T05:40:30.046Z,25.29
2018-07-30T05:41:30.052Z,25.53
2018-07-30T05:42:30.056Z,25.87
2018-07-30T05:43:30.065Z,25.95
2018-07-30T05:44:30.064Z,26.15
2018-07-30T05:45:30.068Z,26.28
2018-07-30T05:46:30.074Z,26.40
2018-07-30T05:47:30.077Z,26.29
2018-07-30T05:48:30.083Z,26.22
2018-07-30T05:49:30.091Z,26.16
2018-07-30T05:50:30.099Z,25.93
2018-07-30T05:51:30.102Z,25.69
2018-07-30T05:52:30.240Z,25.66
2018-07-30T05:53:30.113Z,25.60
2018-07-30T05:54:30.176Z,25.53
2018-07-30T05:55:30.117Z,25.48
2018-07-30T05:56:30.129Z,25.48
2018-07-30T05:57:30.131Z,25.41
2018-07-30T05:58:30.131Z,25.51
2018-07-30T05:59:31.694Z,25.59
2018-07-30T06:00:30.324Z,25.73
2018-07-30T06:01:30.293Z,26.05
2018-07-30T06:02:30.345Z,26.37
2018-07-30T06:03:30.978Z,26.56
2018-07-30T06:04:31.065Z,26.84
2018-07-30T06:05:30.298Z,27.00
2018-07-30T06:06:30.928Z,27.35
2018-07-30T06:07:30.969Z,27.51
2018-07-30T06:08:30.186Z,27.47
2018-07-30T06:09:30.189Z,27.30
2018-07-30T06:10:30.192Z,27.05
2018-07-30T06:11:30.195Z,26.88
2018-07-30T06:12:30.201Z,26.70
2018-07-30T06:13:30.209Z,26.55
2018-07-30T06:14:30.211Z,26.44
2018-07-30T06:15:30.238Z,26.28
2018-07-30T06:16:30.220Z,26.18
2018-07-30T06:17:30.225Z,26.02
2018-07-30T06:18:30.232Z,25.99
2018-07-30T06:19:30.235Z,25.98
2018-07-30T06:20:30.243Z,25.88
2018-07-30T06:21:30.243Z,25.83
2018-07-30T06:22:30.253Z,25.75
2018-07-30T06:23:30.254Z,25.75
2018-07-30T06:24:30.259Z,25.80
2018-07-30T06:25:30.265Z,25.73
2018-07-30T06:26:30.303Z,25.73
2018-07-30T06:27:30.369Z,25.83
2018-07-30T06:28:30.279Z,25.73
2018-07-30T06:29:30.287Z,25.78
2018-07-30T06:30:30.290Z,25.65
2018-07-30T06:31:30.293Z,25.59
2018-07-30T06:32:30.302Z,25.73
2018-07-30T06:33:30.308Z,25.73
2018-07-30T06:34:30.309Z,25.68
2018-07-30T06:35:30.313Z,25.60
2018-07-30T06:36:30.319Z,25.66
2018-07-30T06:37:30.327Z,25.62
2018-07-30T06:38:30.381Z,25.68
2018-07-30T06:39:30.332Z,25.69
2018-07-30T06:40:30.337Z,25.77
2018-07-30T06:41:30.343Z,25.75
2018-07-30T06:42:30.363Z,25.68
2018-07-30T06:43:30.354Z,25.73
2018-07-30T06:44:30.369Z,25.75
2018-07-30T06:45:30.362Z,25.83
2018-07-30T06:46:30.365Z,25.85
2018-07-30T06:47:30.377Z,25.81
2018-07-30T06:48:30.397Z,25.87
2018-07-30T06:49:30.385Z,25.85
2018-07-30T06:50:30.386Z,25.84
2018-07-30T06:51:30.394Z,25.80
2018-07-30T06:52:30.397Z,25.83
2018-07-30T06:53:31.775Z,25.73
2018-07-30T06:54:30.405Z,25.72
2018-07-30T06:55:30.410Z,25.78
2018-07-30T06:56:30.414Z,25.73
2018-07-30T06:57:30.419Z,25.60
2018-07-30T06:58:30.429Z,25.62
2018-07-30T06:59:30.431Z,25.75
2018-07-30T07:00:30.433Z,25.58
2018-07-30T07:01:30.438Z,25.66
2018-07-30T07:02:30.443Z,25.69
2018-07-30T07:03:30.449Z,25.63
2018-07-30T07:04:30.453Z,25.65
2018-07-30T07:05:30.460Z,25.60
2018-07-30T07:06:30.463Z,25.63
2018-07-30T07:07:30.466Z,25.70
2018-07-30T07:08:30.471Z,25.68
2018-07-30T07:09:30.477Z,25.75
2018-07-30T07:10:30.482Z,25.73
2018-07-30T07:11:30.489Z,25.78
2018-07-30T07:12:30.491Z,25.77
2018-07-30T07:13:30.498Z,25.78
2018-07-30T07:14:30.499Z,25.90
2018-07-30T07:15:30.534Z,25.93
2018-07-30T07:16:30.531Z,25.96
2018-07-30T07:17:30.520Z,26.06
2018-07-30T07:18:30.525Z,25.99
2018-07-30T07:19:30.524Z,26.06
2018-07-30T07:20:30.531Z,26.13
2018-07-30T07:21:30.581Z,26.19
2018-07-30T07:22:30.537Z,26.19
2018-07-30T07:23:30.543Z,26.21
2018-07-30T07:24:30.547Z,26.26
2018-07-30T07:25:30.553Z,26.41
2018-07-30T07:26:30.557Z,26.33
2018-07-30T07:27:30.607Z,26.51
2018-07-30T07:28:30.566Z,26.45
2018-07-30T07:29:30.581Z,26.56
2018-07-30T07:30:30.577Z,26.52
2018-07-30T07:31:30.581Z,26.62
2018-07-30T07:32:30.587Z,26.70
2018-07-30T07:33:30.592Z,26.66
2018-07-30T07:34:30.600Z,26.74
2018-07-30T07:35:30.602Z,26.84
2018-07-30T07:36:30.606Z,26.80
2018-07-30T07:37:30.611Z,26.85
2018-07-30T07:38:30.616Z,26.89
2018-07-30T07:39:30.621Z,26.92
2018-07-30T07:40:30.627Z,26.99
2018-07-30T07:41:30.631Z,27.02
2018-07-30T07:42:30.638Z,27.14
2018-07-30T07:43:30.640Z,27.12
2018-07-30T07:44:30.645Z,27.15
2018-07-30T07:45:30.675Z,27.25
2018-07-30T07:46:30.656Z,27.27
2018-07-30T07:47:30.662Z,27.35
2018-07-30T07:48:30.666Z,27.49
2018-07-30T07:49:30.680Z,27.52
2018-07-30T07:50:30.791Z,27.60
2018-07-30T07:51:30.687Z,27.64
2018-07-30T07:52:30.687Z,27.75
2018-07-30T07:53:30.693Z,27.75
2018-07-30T07:54:30.698Z,27.85
2018-07-30T07:55:30.702Z,27.87
2018-07-30T07:56:30.709Z,27.89
2018-07-30T07:57:30.732Z,27.95
2018-07-30T07:58:30.720Z,27.98
2018-07-30T07:59:30.725Z,28.00
2018-07-30T08:00:30.729Z,28.02
2018-07-30T08:01:30.735Z,28.04
2018-07-30T08:02:30.754Z,28.14
2018-07-30T08:03:30.749Z,28.15
2018-07-30T08:04:30.753Z,28.08
2018-07-30T08:05:30.756Z,28.08
2018-07-30T08:06:30.763Z,28.10
2018-07-30T08:07:30.768Z,28.17
2018-07-30T08:08:30.777Z,28.15
2018-07-30T08:09:30.782Z,28.08
2018-07-30T08:10:30.787Z,28.14
2018-07-30T08:11:30.789Z,28.23
2018-07-30T08:12:30.806Z,28.19
2018-07-30T08:13:30.816Z,28.19
2018-07-30T08:14:30.806Z,28.23
2018-07-30T08:15:30.816Z,28.14
2018-07-30T08:16:30.819Z,28.19
2018-07-30T08:17:30.828Z,28.12
2018-07-30T08:18:30.828Z,28.26
2018-07-30T08:19:30.835Z,28.26
2018-07-30T08:20:30.838Z,28.30
2018-07-30T08:21:30.844Z,28.22
2018-07-30T08:22:30.851Z,28.23
2018-07-30T08:23:30.857Z,28.25
2018-07-30T08:24:30.866Z,28.22
2018-07-30T08:25:30.871Z,28.27
2018-07-30T08:26:30.872Z,28.27
2018-07-30T08:27:30.905Z,28.23
2018-07-30T08:28:30.902Z,28.35
2018-07-30T08:29:30.889Z,28.37
2018-07-30T08:30:30.893Z,28.37
2018-07-30T08:31:30.899Z,28.37
2018-07-30T08:32:30.905Z,28.44
2018-07-30T08:33:30.911Z,28.51
2018-07-30T08:34:30.916Z,28.52
2018-07-30T08:35:30.920Z,28.56
2018-07-30T08:36:30.925Z,28.52
2018-07-30T08:37:30.933Z,28.47
2018-07-30T08:38:30.937Z,28.59
2018-07-30T08:39:30.943Z,28.56
2018-07-30T08:40:30.956Z,28.52
2018-07-30T08:41:30.957Z,28.59
2018-07-30T08:42:30.968Z,28.70
2018-07-30T08:43:30.965Z,28.79
2018-07-30T08:44:30.993Z,28.84
2018-07-30T08:45:30.981Z,28.86
2018-07-30T08:46:30.988Z,28.89
2018-07-30T08:47:30.993Z,28.98
2018-07-30T08:48:31.002Z,29.07
2018-07-30T08:49:31.001Z,29.13
2018-07-30T08:50:31.012Z,29.22
2018-07-30T08:51:31.009Z,29.47
2018-07-30T08:52:31.018Z,30.19
2018-07-30T08:53:31.021Z,31.27
2018-07-30T08:54:31.029Z,32.53
2018-07-30T08:55:31.035Z,33.62
2018-07-30T08:56:31.097Z,34.50
2018-07-30T08:57:31.048Z,35.15
2018-07-30T08:58:31.073Z,35.85
2018-07-30T08:59:31.062Z,36.62
2018-07-30T09:00:31.069Z,37.39
2018-07-30T09:01:31.083Z,38.04
2018-07-30T09:02:31.109Z,38.64
2018-07-30T09:03:31.090Z,39.19
2018-07-30T09:04:31.099Z,39.81
2018-07-30T09:05:31.109Z,39.65
2018-07-30T09:06:31.117Z,39.25
2018-07-30T09:07:31.130Z,38.74
2018-07-30T09:08:31.161Z,38.24
2018-07-30T09:09:31.147Z,37.72
2018-07-30T09:10:31.989Z,37.47
2018-07-30T09:11:31.163Z,37.68
2018-07-30T09:12:31.250Z,37.94
2018-07-30T09:13:31.183Z,38.73
2018-07-30T09:14:31.195Z,39.21
2018-07-30T09:15:31.201Z,39.77
2018-07-30T09:16:31.210Z,40.49
2018-07-30T09:17:31.224Z,41.00
2018-07-30T09:18:31.235Z,41.53
2018-07-30T09:19:31.244Z,41.94
2018-07-30T09:20:31.252Z,42.32
2018-07-30T09:21:31.264Z,42.79
2018-07-30T09:22:31.295Z,43.07
2018-07-30T09:23:31.320Z,43.45
2018-07-30T09:24:31.300Z,43.65
2018-07-30T09:25:31.311Z,43.87
2018-07-30T09:26:31.325Z,44.05
2018-07-30T09:27:31.334Z,44.37
2018-07-30T09:28:31.350Z,44.26
2018-07-30T09:29:31.367Z,43.86
2018-07-30T09:30:31.376Z,44.11
2018-07-30T09:31:31.386Z,44.47
2018-07-30T09:32:31.400Z,44.79
2018-07-30T09:33:31.415Z,45.12
2018-07-30T09:34:31.434Z,45.48
2018-07-30T09:35:31.445Z,45.81
2018-07-30T09:36:31.458Z,46.08
2018-07-30T09:37:31.474Z,46.29
2018-07-30T09:38:31.491Z,46.34
2018-07-30T09:39:31.561Z,45.69
2018-07-30T09:40:31.524Z,45.34
2018-07-30T09:41:31.561Z,44.42
2018-07-30T09:42:31.550Z,43.43
2018-07-30T09:43:31.566Z,43.27
2018-07-30T09:44:31.620Z,42.94
2018-07-30T09:45:31.597Z,42.95
2018-07-30T09:46:31.611Z,42.91
2018-07-30T09:47:31.625Z,42.82
2018-07-30T09:48:31.639Z,42.66
2018-07-30T09:49:31.679Z,42.58
2018-07-30T09:50:31.696Z,42.48
2018-07-30T09:51:31.682Z,41.95
2018-07-30T09:52:31.697Z,41.56
2018-07-30T09:53:31.712Z,41.14
2018-07-30T09:54:31.729Z,40.99
2018-07-30T09:55:31.741Z,41.70
2018-07-30T09:56:31.756Z,42.44
2018-07-30T09:57:31.774Z,43.01
2018-07-30T09:58:31.784Z,43.41
2018-07-30T09:59:31.799Z,43.94
2018-07-30T10:00:31.813Z,43.91
2018-07-30T10:01:31.828Z,43.48
2018-07-30T10:02:31.844Z,42.91
2018-07-30T10:03:31.858Z,42.25
2018-07-30T10:04:31.915Z,41.91
2018-07-30T10:05:31.886Z,41.28
2018-07-30T10:06:31.900Z,40.33
2018-07-30T10:07:31.972Z,39.71
2018-07-30T10:08:31.927Z,39.21
2018-07-30T10:09:31.940Z,38.87
2018-07-30T10:10:31.955Z,38.46
2018-07-30T10:11:31.972Z,38.20
2018-07-30T10:12:31.985Z,37.74
2018-07-30T10:13:31.990Z,37.28
2018-07-30T10:14:32.005Z,36.77
2018-07-30T10:15:32.012Z,36.64
2018-07-30T10:16:32.024Z,36.42
2018-07-30T10:17:32.085Z,36.12
2018-07-30T10:18:32.048Z,35.93
2018-07-30T10:19:32.056Z,35.74
2018-07-30T10:20:32.066Z,35.60
2018-07-30T10:21:32.080Z,35.55
2018-07-30T10:22:32.088Z,35.60
2018-07-30T10:23:32.104Z,35.53
2018-07-30T10:24:32.117Z,35.53
2018-07-30T10:25:32.121Z,35.30
2018-07-30T10:26:32.128Z,35.11
2018-07-30T10:27:32.137Z,34.92
2018-07-30T10:28:32.145Z,34.93
2018-07-30T10:29:32.155Z,34.78
2018-07-30T10:30:32.171Z,34.99
2018-07-30T10:31:32.175Z,35.68
2018-07-30T10:32:32.213Z,36.62
2018-07-30T10:33:32.195Z,37.68
2018-07-30T10:34:32.230Z,38.69
2018-07-30T10:35:32.215Z,38.79
2018-07-30T10:36:32.222Z,38.24
2018-07-30T10:37:32.245Z,37.45
2018-07-30T10:38:32.244Z,36.77
2018-07-30T10:39:32.254Z,36.95
2018-07-30T10:40:32.265Z,37.53
2018-07-30T10:41:32.276Z,38.38
2018-07-30T10:42:34.294Z,38.49
2018-07-30T10:43:32.296Z,38.80
2018-07-30T10:44:32.308Z,39.24
2018-07-30T10:45:32.328Z,39.68
2018-07-30T10:46:32.331Z,40.00
2018-07-30T10:47:32.341Z,40.77
2018-07-30T10:48:32.357Z,41.33
2018-07-30T10:49:32.365Z,40.66
2018-07-30T10:50:32.377Z,39.96
2018-07-30T10:51:32.389Z,39.68
2018-07-30T10:52:32.600Z,39.31
2018-07-30T10:53:32.413Z,39.15
2018-07-30T10:54:32.453Z,39.41
2018-07-30T10:55:32.438Z,39.51
2018-07-30T10:56:32.449Z,40.44
2018-07-30T10:57:32.461Z,41.28
2018-07-30T10:58:32.474Z,42.02
2018-07-30T10:59:32.488Z,42.69
2018-07-30T11:00:32.501Z,43.28
2018-07-30T11:01:32.543Z,43.79
2018-07-30T11:02:32.534Z,44.20
2018-07-30T11:03:32.542Z,44.34
2018-07-30T11:04:32.559Z,44.51
2018-07-30T11:05:32.570Z,44.71
2018-07-30T11:06:32.615Z,44.93
2018-07-30T11:07:32.602Z,45.06
2018-07-30T11:08:32.615Z,45.28
2018-07-30T11:09:32.676Z,45.43
2018-07-30T11:10:32.650Z,45.59
2018-07-30T11:11:32.712Z,45.87
2018-07-30T11:12:32.714Z,46.01
2018-07-30T11:13:32.701Z,46.47
2018-07-30T11:14:32.718Z,46.73
2018-07-30T11:15:32.735Z,46.96
2018-07-30T11:16:32.753Z,46.96
2018-07-30T11:17:33.223Z,47.20
2018-07-30T11:18:32.794Z,47.53
2018-07-30T11:19:32.808Z,47.42
2018-07-30T11:20:32.827Z,47.20
2018-07-30T11:21:32.869Z,47.30
2018-07-30T11:22:32.867Z,47.41
2018-07-30T11:23:32.936Z,47.52
2018-07-30T11:24:32.905Z,47.68
2018-07-30T11:25:32.933Z,47.74
2018-07-30T11:26:32.947Z,47.87
2018-07-30T11:27:32.964Z,47.86
2018-07-30T11:28:32.985Z,47.93
2018-07-30T11:29:33.007Z,48.21
2018-07-30T11:30:33.025Z,48.38
2018-07-30T11:31:33.043Z,48.40
2018-07-30T11:32:33.072Z,48.45
2018-07-30T11:33:33.132Z,48.55
2018-07-30T11:34:33.195Z,48.94
2018-07-30T11:35:33.234Z,49.21
2018-07-30T11:36:33.212Z,49.25
2018-07-30T11:37:33.216Z,49.45
2018-07-30T11:38:33.390Z,49.70
2018-07-30T11:39:33.260Z,49.74
2018-07-30T11:40:33.247Z,49.67
2018-07-30T11:41:33.271Z,49.42
2018-07-30T11:42:33.292Z,49.36
2018-07-30T11:43:33.304Z,49.32
2018-07-30T11:44:33.325Z,49.51
2018-07-30T11:45:33.340Z,49.61
2018-07-30T11:46:33.361Z,49.63
2018-07-30T11:47:33.387Z,49.87
2018-07-30T11:48:33.568Z,49.93
2018-07-30T11:49:33.482Z,49.71
2018-07-30T11:50:33.715Z,49.95
2018-07-30T11:51:33.632Z,50.08
2018-07-30T11:52:33.802Z,50.11
2018-07-30T11:53:33.632Z,49.85
2018-07-30T11:54:33.685Z,48.74
2018-07-30T11:55:33.557Z,48.26
2018-07-30T11:56:33.580Z,48.02
2018-07-30T11:57:33.607Z,47.91
2018-07-30T11:58:33.640Z,47.87
2018-07-30T11:59:33.683Z,47.90
2018-07-30T12:00:33.713Z,48.12
2018-07-30T12:01:33.686Z,48.36
2018-07-30T12:02:33.714Z,48.65
2018-07-30T12:03:33.730Z,48.77
2018-07-30T12:04:34.752Z,48.87
2018-07-30T12:05:33.808Z,49.16
2018-07-30T12:06:33.791Z,49.33
2018-07-30T12:07:33.858Z,49.23
2018-07-30T12:08:33.863Z,48.82
2018-07-30T12:09:34.580Z,48.45
2018-07-30T12:10:33.958Z,48.29
2018-07-30T12:11:33.954Z,48.24
2018-07-30T12:12:33.996Z,48.40
2018-07-30T12:13:33.956Z,48.62
2018-07-30T12:14:35.034Z,48.57
2018-07-30T12:15:33.983Z,48.60
2018-07-30T12:16:34.118Z,48.57
2018-07-30T12:17:34.079Z,48.21
2018-07-30T12:18:34.191Z,47.41
2018-07-30T12:19:34.070Z,46.66
2018-07-30T12:20:34.079Z,45.82
2018-07-30T12:21:34.099Z,45.10
2018-07-30T12:22:34.118Z,44.33
2018-07-30T12:23:34.202Z,43.74
2018-07-30T12:24:34.155Z,43.49
2018-07-30T12:25:34.173Z,43.19
2018-07-30T12:26:34.194Z,42.97
2018-07-30T12:27:34.330Z,43.01
2018-07-30T12:28:34.222Z,42.92
2018-07-30T12:29:34.242Z,42.92
2018-07-30T12:30:34.297Z,42.60
2018-07-30T12:31:34.282Z,42.48
2018-07-30T12:32:34.288Z,42.32
2018-07-30T12:33:34.440Z,42.24
2018-07-30T12:34:34.328Z,42.06
2018-07-30T12:35:34.332Z,41.80
2018-07-30T12:36:34.414Z,41.70
2018-07-30T12:37:34.361Z,41.53
2018-07-30T12:38:34.377Z,41.55
2018-07-30T12:39:34.389Z,41.37
2018-07-30T12:40:34.403Z,41.34
2018-07-30T12:41:34.420Z,41.31
2018-07-30T12:42:34.431Z,41.15
2018-07-30T12:43:34.447Z,41.18
2018-07-30T12:44:34.457Z,41.12
2018-07-30T12:45:34.477Z,41.03
2018-07-30T12:46:34.531Z,40.96
2018-07-30T12:47:34.495Z,40.88
2018-07-30T12:48:34.510Z,40.63
2018-07-30T12:49:34.523Z,40.34
2018-07-30T12:50:34.613Z,40.26
2018-07-30T12:51:34.552Z,40.04
2018-07-30T12:52:34.570Z,39.83